Temp: 11.6°C   Baro: 1028.9mb
  Wind: 0.0mph   Dir: NE (51°)
  Rain: 0.0mm (0.0mm/hr)
  Solar: 0W/m2  Hum: 82%
 
Bath Spa Weather Historical Data
Daily Summary for September 12, 2019 Units:  English    Metric   Both
Next Day »
Daily Weekly Monthly Yearly Custom
  High: Low: Average:
Temperature: 71.6 °F 55.9 °F 62.8 °F
Dew Point: 61.3 °F 53.6 °F 57.7 °F
Humidity: 94% 68% 84%
Wind Speed: 19mph 0mph 4.4mph
Wind Gust: 20mph - -
Wind direction- - West
Pressure: 30.4 in 30.2 in -
Precipitation: 0.01 in    
Historical Graphs
 
 
Tabular Data for September 12, 2019
Time Temperature Dew Point Pressure Wind direction Wind Speed Wind Gust Humidity Rainfall Rate (Hourly) solar
00:00 57.9 °F 55.2 °F 30.2 in WNW 0.9 mph 2 mph 91% 0 in 0.00 W/m2
00:05 57.9 °F 55.2 °F 30.2 in Calm   1 mph 91% 0 in 0.00 W/m2
00:10 57.9 °F 55.2 °F 30.2 in WNW 0.9 mph 1 mph 91% 0 in 0.00 W/m2
00:15 58.1 °F 55.4 °F 30.2 in WNW 2.9 mph 4 mph 91% 0 in 0.00 W/m2
00:20 58.1 °F 55.4 °F 30.2 in Calm   1 mph 91% 0 in 0.00 W/m2
00:25 58.1 °F 55.4 °F 30.2 in WNW 0.9 mph 2 mph 91% 0 in 0.00 W/m2
00:30 58.1 °F 55.4 °F 30.2 in WNW 0.9 mph 2 mph 91% 0 in 0.00 W/m2
00:35 58.1 °F 55.4 °F 30.2 in WNW 3 mph 3 mph 91% 0 in 0.00 W/m2
00:40 58.1 °F 55.4 °F 30.2 in Calm   3 mph 91% 0 in 0.00 W/m2
00:45 58.3 °F 55.6 °F 30.2 in Calm   3 mph 91% 0 in 0.00 W/m2
00:50 58.3 °F 55.6 °F 30.2 in WNW 2 mph 3 mph 91% 0 in 0.00 W/m2
00:55 58.3 °F 55.6 °F 30.2 in Calm   2 mph 91% 0 in 0.00 W/m2
01:00 58.3 °F 55.6 °F 30.2 in WNW 2.9 mph 3 mph 91% 0 in 0.00 W/m2
01:05 58.1 °F 55.4 °F 30.2 in Calm   3 mph 91% 0 in 0.00 W/m2
01:10 58.1 °F 55.4 °F 30.2 in WNW 0.9 mph 3 mph 91% 0 in 0.00 W/m2
01:15 58.3 °F 55.6 °F 30.2 in Calm   3 mph 91% 0 in 0.00 W/m2
01:20 58.1 °F 55.4 °F 30.2 in WNW 2 mph 3 mph 91% 0 in 0.00 W/m2
01:25 58.1 °F 55.4 °F 30.3 in WNW 2.9 mph 3 mph 91% 0 in 0.00 W/m2
01:30 58.1 °F 55.4 °F 30.3 in WNW 4 mph 5 mph 91% 0 in 0.00 W/m2
01:35 57.9 °F 55.2 °F 30.3 in WNW 2 mph 4 mph 91% 0 in 0.00 W/m2
01:40 57.7 °F 55.2 °F 30.3 in WNW 0.9 mph 5 mph 91% 0 in 0.00 W/m2
01:45 57.7 °F 55.2 °F 30.3 in Calm   1 mph 91% 0 in 0.00 W/m2
01:50 57.6 °F 55 °F 30.3 in Calm   1 mph 91% 0 in 0.00 W/m2
01:55 57.2 °F 54.7 °F 30.3 in Calm   2 mph 91% 0 in 0.00 W/m2
02:00 57.2 °F 54.7 °F 30.3 in WNW 0.9 mph 2 mph 91% 0 in 0.00 W/m2
02:05 57 °F 54.5 °F 30.3 in WNW 0.9 mph 2 mph 91% 0 in 0.00 W/m2
02:10 56.8 °F 54.3 °F 30.3 in WNW 0.9 mph 2 mph 91% 0 in 0.00 W/m2
02:15 56.7 °F 54.1 °F 30.3 in WNW 0.9 mph 2 mph 91% 0 in 0.00 W/m2
02:20 56.5 °F 54.1 °F 30.3 in Calm   3 mph 92% 0 in 0.00 W/m2
02:25 56.3 °F 54 °F 30.3 in WNW 2 mph 3 mph 92% 0 in 0.00 W/m2
02:30 56.3 °F 54 °F 30.3 in WNW 0.9 mph 1 mph 92% 0 in 0.00 W/m2
02:35 56.1 °F 53.8 °F 30.3 in Calm   1 mph 92% 0 in 0.00 W/m2
02:40 56.1 °F 53.8 °F 30.3 in WNW 0.9 mph 2 mph 92% 0 in 0.00 W/m2
02:45 56.1 °F 53.8 °F 30.3 in Calm   2 mph 92% 0 in 0.00 W/m2
02:50 56.1 °F 53.8 °F 30.3 in WNW 0.9 mph 3 mph 92% 0 in 0.00 W/m2
02:55 56.3 °F 54 °F 30.3 in Calm   2 mph 92% 0 in 0.00 W/m2
03:00 56.1 °F 53.8 °F 30.3 in Calm   2 mph 92% 0 in 0.00 W/m2
03:05 56.3 °F 54 °F 30.3 in Calm   1 mph 92% 0 in 0.00 W/m2
03:10 56.3 °F 54 °F 30.3 in Calm     92% 0 in 0.00 W/m2
03:15 56.3 °F 54 °F 30.3 in Calm   1 mph 92% 0 in 0.00 W/m2
03:20 56.1 °F 53.8 °F 30.3 in Calm   2 mph 92% 0 in 0.00 W/m2
03:25 56.1 °F 53.8 °F 30.3 in Calm   1 mph 92% 0 in 0.00 W/m2
03:30 56.1 °F 53.8 °F 30.3 in Calm     92% 0 in 0.00 W/m2
03:35 55.9 °F 53.6 °F 30.3 in Calm   1 mph 92% 0 in 0.00 W/m2
03:40 55.9 °F 53.6 °F 30.3 in Calm   2 mph 92% 0 in 0.00 W/m2
03:45 55.9 °F 53.6 °F 30.3 in Calm   1 mph 92% 0 in 0.00 W/m2
03:50 55.9 °F 54 °F 30.3 in WNW 0.9 mph 3 mph 93% 0 in 0.00 W/m2
03:55 55.9 °F 54 °F 30.3 in WNW 0.9 mph 2 mph 93% 0 in 0.00 W/m2
04:00 55.9 °F 54 °F 30.3 in Calm   1 mph 93% 0 in 0.00 W/m2
04:05 55.9 °F 54 °F 30.3 in Calm   1 mph 93% 0 in 0.00 W/m2
04:10 56.1 °F 54.1 °F 30.3 in Calm     93% 0 in 0.00 W/m2
04:15 56.1 °F 54.1 °F 30.3 in Calm     93% 0 in 0.00 W/m2
04:20 56.1 °F 53.8 °F 30.3 in Calm     92% 0 in 0.00 W/m2
04:25 56.1 °F 53.8 °F 30.3 in Calm   1 mph 92% 0 in 0.00 W/m2
04:30 56.3 °F 54 °F 30.3 in Calm     92% 0 in 0.00 W/m2
04:35 56.3 °F 54 °F 30.3 in Calm     92% 0 in 0.00 W/m2
04:40 56.5 °F 54.1 °F 30.3 in WNW 0.9 mph 2 mph 92% 0 in 0.00 W/m2
04:45 56.7 °F 54.3 °F 30.3 in Calm   1 mph 92% 0 in 0.00 W/m2
04:50 56.7 °F 54.3 °F 30.3 in Calm   1 mph 92% 0 in 0.00 W/m2
04:55 56.7 °F 54.3 °F 30.3 in Calm   1 mph 92% 0 in 0.00 W/m2
05:00 56.8 °F 54.5 °F 30.3 in WNW 2.9 mph 3 mph 92% 0 in 0.00 W/m2
05:05 56.8 °F 54.5 °F 30.3 in Calm     92% 0 in 0.00 W/m2
05:10 57 °F 54.7 °F 30.3 in Calm   3 mph 92% 0 in 0.00 W/m2
05:15 57 °F 54.7 °F 30.3 in Calm   2 mph 92% 0 in 0.00 W/m2
05:20 57.2 °F 54.9 °F 30.3 in Calm   1 mph 92% 0 in 0.00 W/m2
05:25 57.4 °F 55 °F 30.3 in WNW 2 mph 3 mph 92% 0 in 0.00 W/m2
05:30 57.6 °F 55.2 °F 30.3 in WNW 2 mph 5 mph 92% 0 in 0.00 W/m2
05:35 57.7 °F 55.4 °F 30.3 in WNW 2 mph 3 mph 92% 0 in 0.00 W/m2
05:40 57.9 °F 55.6 °F 30.3 in Calm   3 mph 92% 0 in 0.00 W/m2
05:45 57.9 °F 55.6 °F 30.3 in Calm   2 mph 92% 0 in 0.00 W/m2
05:50 57.9 °F 55.6 °F 30.3 in Calm   2 mph 92% 0 in 0.00 W/m2
05:55 57.9 °F 55.2 °F 30.3 in West 4 mph 4 mph 91% 0 in 0.00 W/m2
06:00 57.9 °F 55.2 °F 30.3 in West 5 mph 5 mph 91% 0 in 0.00 W/m2
06:05 57.9 °F 55.2 °F 30.3 in West 4 mph 5 mph 91% 0 in 0.00 W/m2
06:10 58.1 °F 55.4 °F 30.3 in Calm   5 mph 91% 0 in 0.00 W/m2
06:15 58.1 °F 55.4 °F 30.3 in WSW 4 mph 7 mph 91% 0 in 0.00 W/m2
06:20 58.1 °F 55.2 °F 30.3 in WSW 2 mph 4 mph 90% 0 in 0.00 W/m2
06:25 58.1 °F 55.2 °F 30.3 in WSW 4.9 mph 5 mph 90% 0 in 0.00 W/m2
06:30 58.3 °F 55.4 °F 30.3 in Calm   3 mph 90% 0 in 0.00 W/m2
06:35 58.3 °F 55.4 °F 30.3 in WSW 0.9 mph 3 mph 90% 0 in 0.00 W/m2
06:40 58.3 °F 55.4 °F 30.3 in WSW 0.9 mph 5 mph 90% 0 in 0.00 W/m2
06:45 58.5 °F 55.6 °F 30.3 in Calm   5 mph 90% 0 in 0.00 W/m2
06:50 58.3 °F 55.6 °F 30.3 in West 0.9 mph 5 mph 91% 0 in 5.00 W/m2
06:55 58.3 °F 55.6 °F 30.3 in Calm   2 mph 91% 0 in 7.00 W/m2
07:00 58.3 °F 55.6 °F 30.3 in WNW 2 mph 4 mph 91% 0 in 14.00 W/m2
07:05 58.3 °F 55.6 °F 30.3 in WNW 0.9 mph 2 mph 91% 0 in 12.00 W/m2
07:10 58.3 °F 55.6 °F 30.3 in WNW 0.9 mph 2 mph 91% 0 in 12.00 W/m2
07:15 58.5 °F 55.8 °F 30.3 in WNW 0.9 mph 2 mph 91% 0 in 16.00 W/m2
07:20 58.5 °F 55.8 °F 30.3 in Calm   1 mph 91% 0 in 19.00 W/m2
07:25 58.5 °F 55.8 °F 30.3 in Calm     91% 0 in 33.00 W/m2
07:30 58.6 °F 56.3 °F 30.3 in Calm     92% 0 in 30.00 W/m2
07:35 58.8 °F 56.5 °F 30.3 in Calm   1 mph 92% 0 in 44.00 W/m2
07:40 58.8 °F 56.5 °F 30.3 in Calm   1 mph 92% 0 in 32.00 W/m2
07:45 59 °F 56.7 °F 30.3 in Calm   1 mph 92% 0 in 33.00 W/m2
07:50 59.2 °F 56.8 °F 30.3 in Calm     92% 0 in 37.00 W/m2
07:55 59.5 °F 57.2 °F 30.3 in SW 2 mph 6 mph 92% 0 in 46.00 W/m2
08:00 59.7 °F 57.4 °F 30.3 in West 4 mph 7 mph 92% 0 in 60.00 W/m2
08:05 59.9 °F 57.6 °F 30.3 in SW 2.9 mph 7 mph 92% 0 in 53.00 W/m2
08:10 59.9 °F 57.6 °F 30.3 in WSW 0.9 mph 6 mph 92% 0 in 95.00 W/m2
08:15 60.3 °F 58.3 °F 30.3 in SW 2.9 mph 6 mph 93% 0 in 76.00 W/m2
08:20 60.4 °F 58.5 °F 30.3 in WSW 2.9 mph 6 mph 93% 0 in 104.00 W/m2
08:25 60.4 °F 58.5 °F 30.3 in WSW 4 mph 9 mph 93% 0 in 120.00 W/m2
08:30 60.8 °F 58.8 °F 30.3 in SW 4 mph 5 mph 93% 0 in 127.00 W/m2
08:35 61 °F 59 °F 30.3 in SW 4 mph 9 mph 93% 0 in 111.00 W/m2
08:40 61.2 °F 59.2 °F 30.3 in SW 4.9 mph 9 mph 93% 0 in 116.00 W/m2
08:45 61.3 °F 59.4 °F 30.3 in SW 4 mph 9 mph 93% 0 in 120.00 W/m2
08:50 61.3 °F 59.4 °F 30.3 in WSW 4 mph 12 mph 93% 0 in 127.00 W/m2
08:55 61.5 °F 59.5 °F 30.3 in WSW 11 mph 11 mph 93% 0 in 132.00 W/m2
09:00 61.7 °F 59.7 °F 30.3 in SW 6.9 mph 12 mph 93% 0 in 153.00 W/m2
09:05 62.1 °F 59.7 °F 30.3 in SW 6.9 mph 11 mph 92% 0 in 213.00 W/m2
09:10 62.4 °F 60.1 °F 30.3 in WSW 8.1 mph 8 mph 92% 0 in 301.00 W/m2
09:15 62.6 °F 60.3 °F 30.3 in WSW 6.9 mph 10 mph 92% 0 in 220.00 W/m2
09:20 63 °F 60.3 °F 30.3 in WSW 2 mph 11 mph 91% 0 in 220.00 W/m2
09:25 63.1 °F 60.1 °F 30.3 in WSW 4 mph 9 mph 90% 0 in 158.00 W/m2
09:30 63.1 °F 60.1 °F 30.3 in SW 4.9 mph 9 mph 90% 0 in 200.00 W/m2
09:35 63.3 °F 60.3 °F 30.3 in WSW 2.9 mph 10 mph 90% 0 in 258.00 W/m2
09:40 63.5 °F 60.3 °F 30.3 in SW 6 mph 7 mph 89% 0 in 232.00 W/m2
09:45 64 °F 60.8 °F 30.3 in West 6.9 mph 10 mph 89% 0 in 352.00 W/m2
09:50 64.2 °F 60.6 °F 30.3 in SW 14.1 mph 16 mph 88% 0 in 244.00 W/m2
09:55 64 °F 60.1 °F 30.3 in WSW 8.9 mph 12 mph 87% 0 in 193.00 W/m2
10:00 64.4 °F 60.4 °F 30.3 in West 10.1 mph 12 mph 87% 0 in 239.00 W/m2
10:05 64.2 °F 59.9 °F 30.3 in SW 8.1 mph 15 mph 86% 0 in 278.00 W/m2
10:10 64.4 °F 60.1 °F 30.3 in SW 8.9 mph 11 mph 86% 0 in 216.00 W/m2
10:15 64.6 °F 60.3 °F 30.3 in SSW 6 mph 12 mph 86% 0 in 255.00 W/m2
10:20 64.4 °F 60.1 °F 30.3 in SW 10.1 mph 13 mph 86% 0 in 353.00 W/m2
10:25 64 °F 59.7 °F 30.3 in WNW 6.9 mph 12 mph 86% 0 in 408.00 W/m2
10:30 64.4 °F 60.1 °F 30.3 in WNW 8.9 mph 13 mph 86% 0 in 547.00 W/m2
10:35 64.9 °F 60.6 °F 30.3 in WSW 6 mph 10 mph 86% 0 in 306.00 W/m2
10:40 64.8 °F 60.4 °F 30.3 in SW 4 mph 15 mph 86% 0 in 243.00 W/m2
10:45 64.8 °F 60.4 °F 30.3 in WSW 10.1 mph 15 mph 86% 0 in 638.00 W/m2
10:50 65.1 °F 60.1 °F 30.3 in SW 8.9 mph 15 mph 84% 0 in 383.00 W/m2
10:55 65.8 °F 60.3 °F 30.3 in West 8.9 mph 12 mph 82% 0 in 429.00 W/m2
11:00 66 °F 60.4 °F 30.3 in SW 2.9 mph 10 mph 82% 0 in 279.00 W/m2
11:05 66.2 °F 60.3 °F 30.3 in SW 4.9 mph 9 mph 81% 0 in 237.00 W/m2
11:10 66 °F 59.7 °F 30.3 in West 10.1 mph 12 mph 80% 0 in 292.00 W/m2
11:15 66.2 °F 59.9 °F 30.3 in SW 8.9 mph 10 mph 80% 0 in 295.00 W/m2
11:20 66.6 °F 60.3 °F 30.3 in WSW 10.1 mph 10 mph 80% 0 in 401.00 W/m2
11:25 66.7 °F 60.1 °F 30.3 in WSW 8.9 mph 16 mph 79% 0 in 327.00 W/m2
11:30 66.7 °F 59.7 °F 30.3 in WSW 14.1 mph 14 mph 78% 0 in 221.00 W/m2
11:35 66.7 °F 59.7 °F 30.3 in WSW 8.9 mph 12 mph 78% 0 in 160.00 W/m2
11:40 66.7 °F 59.7 °F 30.3 in West 4.9 mph 8 mph 78% 0 in 172.00 W/m2
11:45 66.7 °F 59.7 °F 30.3 in West 6 mph 11 mph 78% 0 in 185.00 W/m2
11:50 66.9 °F 59.9 °F 30.3 in WSW 6.9 mph 12 mph 78% 0 in 244.00 W/m2
11:55 66.9 °F 59.9 °F 30.3 in West 12.1 mph 15 mph 78% 0 in 144.00 W/m2
12:00 66.9 °F 59.9 °F 30.3 in West 4 mph 9 mph 78% 0 in 114.00 W/m2
12:05 66.7 °F 59.7 °F 30.3 in West 4 mph 14 mph 78% 0 in 163.00 W/m2
12:10 66.7 °F 59.7 °F 30.3 in WSW 6.9 mph 13 mph 78% 0 in 153.00 W/m2
12:15 66.7 °F 59.7 °F 30.3 in WSW 6.9 mph 14 mph 78% 0 in 209.00 W/m2
12:20 66.7 °F 59.7 °F 30.3 in WNW 10.1 mph 13 mph 78% 0 in 232.00 W/m2
12:25 67.1 °F 60.1 °F 30.3 in WSW 8.9 mph 13 mph 78% 0 in 387.00 W/m2
12:30 68 °F 60.4 °F 30.3 in WSW 8.9 mph 10 mph 77% 0 in 387.00 W/m2
12:35 68.4 °F 60.4 °F 30.3 in WSW 6 mph 9 mph 76% 0 in 591.00 W/m2
12:40 68.9 °F 60.6 °F 30.3 in WSW 2.9 mph 12 mph 75% 0 in 362.00 W/m2
12:45 69.1 °F 60.1 °F 30.3 in WNW 6.9 mph 9 mph 73% 0 in 253.00 W/m2
12:50 69.4 °F 60.4 °F 30.3 in NW 8.1 mph 13 mph 73% 0 in 830.00 W/m2
12:55 69.4 °F 59.5 °F 30.3 in SW 15 mph 15 mph 71% 0 in 142.00 W/m2
13:00 69.3 °F 59.5 °F 30.3 in West 8.1 mph 15 mph 71% 0 in 837.00 W/m2
13:05 69.6 °F 60.3 °F 30.3 in WSW 4.9 mph 13 mph 72% 0 in 795.00 W/m2
13:10 70.9 °F 60.3 °F 30.3 in West 11 mph 11 mph 69% 0 in 810.00 W/m2
13:15 70.7 °F 60.4 °F 30.3 in West 12.1 mph 12 mph 70% 0 in 714.00 W/m2
13:20 70.2 °F 59.5 °F 30.3 in West 8.1 mph 9 mph 69% 0 in 649.00 W/m2
13:25 69.4 °F 59.2 °F 30.3 in WNW 13 mph 14 mph 70% 0 in 292.00 W/m2
13:30 69.3 °F 59.5 °F 30.3 in West 6 mph 20 mph 71% 0 in 243.00 W/m2
13:35 69.6 °F 60.3 °F 30.3 in West 10.1 mph 13 mph 72% 0 in 239.00 W/m2
13:40 69.6 °F 59.7 °F 30.3 in SW 4.9 mph 20 mph 71% 0 in 278.00 W/m2
13:45 69.6 °F 59.7 °F 30.3 in SW 8.9 mph 14 mph 71% 0 in 313.00 W/m2
13:50 69.6 °F 60.3 °F 30.3 in SW 13 mph 16 mph 72% 0 in 459.00 W/m2
13:55 69.6 °F 60.3 °F 30.3 in WSW 11 mph 15 mph 72% 0 in 352.00 W/m2
14:00 70.5 °F 60.6 °F 30.3 in West 10.1 mph 13 mph 71% 0 in 647.00 W/m2
14:05 70.3 °F 60.4 °F 30.3 in West 4 mph 16 mph 71% 0 in 703.00 W/m2
14:10 70.7 °F 60.4 °F 30.3 in West 4.9 mph 12 mph 70% 0 in 671.00 W/m2
14:15 70.7 °F 60.1 °F 30.3 in WNW 4.9 mph 15 mph 69% 0 in 691.00 W/m2
14:20 70.2 °F 59.9 °F 30.3 in West 6 mph 15 mph 70% 0 in 749.00 W/m2
14:25 70.7 °F 60.8 °F 30.3 in WNW 12.1 mph 16 mph 71% 0 in 805.00 W/m2
14:30 71.6 °F 61.3 °F 30.3 in SW 8.1 mph 12 mph 70% 0 in 508.00 W/m2
14:35 71.2 °F 60.6 °F 30.3 in West 16.1 mph 17 mph 69% 0 in 559.00 W/m2
14:40 71.2 °F 61 °F 30.3 in WNW 11 mph 12 mph 70% 0 in 694.00 W/m2
14:45 70.7 °F 60.8 °F 30.3 in West 11 mph 13 mph 71% 0 in 605.00 W/m2
14:50 70.7 °F 60.8 °F 30.3 in WNW 13 mph 14 mph 71% 0 in 638.00 W/m2
14:55 70.5 °F 61 °F 30.3 in West 6.9 mph 14 mph 72% 0 in 606.00 W/m2
15:00 71.2 °F 61.3 °F 30.3 in NW 4 mph 9 mph 71% 0 in 594.00 W/m2
15:05 70.3 °F 60.8 °F 30.3 in West 12.1 mph 18 mph 72% 0 in 606.00 W/m2
15:10 70.2 °F 60.6 °F 30.3 in West 11 mph 14 mph 72% 0 in 573.00 W/m2
15:15 70.3 °F 60.8 °F 30.3 in NNW 4 mph 10 mph 72% 0 in 571.00 W/m2
15:20 70.3 °F 60.1 °F 30.3 in West 16 mph 16 mph 70% 0 in 573.00 W/m2
15:25 70.5 °F 60.3 °F 30.3 in West 8.9 mph 13 mph 70% 0 in 580.00 W/m2
15:30 70.5 °F 59.9 °F 30.3 in West 13 mph 15 mph 69% 0 in 571.00 W/m2
15:35 70.2 °F 59.9 °F 30.3 in West 11 mph 13 mph 70% 0 in 570.00 W/m2
15:40 69.8 °F 58.8 °F 30.3 in WNW 2.9 mph 16 mph 68% 0 in 492.00 W/m2
15:45 69.8 °F 58.8 °F 30.3 in West 6 mph 15 mph 68% 0 in 271.00 W/m2
15:50 70.3 °F 59.7 °F 30.3 in NNW 0.9 mph 17 mph 69% 0 in 526.00 W/m2
15:55 70.9 °F 59.7 °F 30.3 in WNW 4 mph 9 mph 68% 0 in 517.00 W/m2
16:00 70 °F 59 °F 30.3 in NNW 8.1 mph 13 mph 68% 0 in 566.00 W/m2
16:05 70 °F 59.4 °F 30.3 in West 4.9 mph 14 mph 69% 0 in 475.00 W/m2
16:10 69.6 °F 59 °F 30.3 in West 12.1 mph 15 mph 69% 0 in 466.00 W/m2
16:15 69.8 °F 59.2 °F 30.3 in WNW 6.9 mph 14 mph 69% 0 in 450.00 W/m2
16:20 69.3 °F 58.6 °F 30.3 in NNW 13 mph 17 mph 69% 0 in 439.00 W/m2
16:25 69.3 °F 58.6 °F 30.3 in NW 12.1 mph 15 mph 69% 0 in 425.00 W/m2
16:30 69.1 °F 58.5 °F 30.3 in West 8.1 mph 14 mph 69% 0 in 417.00 W/m2
16:35 68.9 °F 58.6 °F 30.3 in WNW 6.9 mph 15 mph 70% 0 in 397.00 W/m2
16:40 68.7 °F 58.5 °F 30.3 in NW 8.9 mph 15 mph 70% 0 in 397.00 W/m2
16:45 68.5 °F 58.8 °F 30.3 in WNW 6.9 mph 16 mph 71% 0 in 383.00 W/m2
16:50 68.4 °F 58.3 °F 30.3 in West 8.9 mph 18 mph 70% 0 in 367.00 W/m2
16:55 68.5 °F 58.8 °F 30.3 in West 14.1 mph 14 mph 71% 0 in 359.00 W/m2
17:00 68.9 °F 59.2 °F 30.3 in WSW 2.9 mph 12 mph 71% 0 in 348.00 W/m2
17:05 68.9 °F 58.6 °F 30.3 in NW 13 mph 13 mph 70% 0 in 336.00 W/m2
17:10 68.5 °F 58.8 °F 30.3 in West 8.9 mph 14 mph 71% 0 in 322.00 W/m2
17:15 68.7 °F 59 °F 30.3 in NW 4.9 mph 14 mph 71% 0 in 313.00 W/m2
17:20 68.4 °F 58.6 °F 30.3 in West 4.9 mph 13 mph 71% 0 in 299.00 W/m2
17:25 68.5 °F 59.2 °F 30.3 in NW 4.9 mph 11 mph 72% 0 in 285.00 W/m2
17:30 68.5 °F 59.2 °F 30.3 in WSW 11 mph 13 mph 72% 0 in 90.00 W/m2
17:35 67.5 °F 58.1 °F 30.3 in WNW 12.1 mph 16 mph 72% 0 in 202.00 W/m2
17:40 67.5 °F 58.5 °F 30.3 in West 10.1 mph 16 mph 73% 0 in 72.00 W/m2
17:45 66.9 °F 58.3 °F 30.3 in West 8.9 mph 15 mph 74% 0 in 53.00 W/m2
17:50 66.9 °F 58.3 °F 30.3 in NW 12.1 mph 13 mph 74% 0 in 54.00 W/m2
17:55 66.7 °F 58.1 °F 30.3 in NW 19 mph 19 mph 74% 0 in 62.00 W/m2
18:00 66.6 °F 58.1 °F 30.3 in West 13 mph 13 mph 74% 0 in 46.00 W/m2
18:05 66.6 °F 58.1 °F 30.3 in West 2.9 mph 12 mph 74% 0 in 46.00 W/m2
18:10 66.6 °F 58.1 °F 30.3 in West 4.9 mph 10 mph 74% 0 in 39.00 W/m2
18:15 66.2 °F 58.1 °F 30.3 in WNW 4 mph 8 mph 75% 0 in 35.00 W/m2
18:20 66 °F 57.9 °F 30.3 in WNW 8.9 mph 10 mph 75% 0 in 33.00 W/m2
18:25 65.8 °F 57.7 °F 30.3 in WNW 4.9 mph 14 mph 75% 0 in 33.00 W/m2
18:30 65.7 °F 57.6 °F 30.3 in West 4.9 mph 11 mph 75% 0 in 30.00 W/m2
18:35 65.7 °F 57.6 °F 30.3 in WNW 2.9 mph 7 mph 75% 0 in 21.00 W/m2
18:40 65.7 °F 57.6 °F 30.3 in West 14.1 mph 14 mph 75% 0 in 18.00 W/m2
18:45 65.3 °F 56.8 °F 30.3 in NW 6.9 mph 8 mph 74% 0 in 16.00 W/m2
18:50 65.3 °F 57.2 °F 30.3 in WNW 2 mph 10 mph 75% 0 in 14.00 W/m2
18:55 65.1 °F 57 °F 30.3 in West 6 mph 9 mph 75% 0 in 14.00 W/m2
19:00 65.1 °F 57 °F 30.3 in NW 8.1 mph 8 mph 75% 0 in 14.00 W/m2
19:05 64.9 °F 57.2 °F 30.3 in WNW 4 mph 11 mph 76% 0 in 12.00 W/m2
19:10 64.6 °F 56.8 °F 30.3 in NW 2 mph 8 mph 76% 0 in 5.00 W/m2
19:15 64.4 °F 57 °F 30.3 in NW 4.9 mph 10 mph 77% 0 in 0.00 W/m2
19:20 64.2 °F 57.2 °F 30.3 in West 4.9 mph 9 mph 78% 0 in 0.00 W/m2
19:25 64 °F 57 °F 30.3 in West 8.9 mph 9 mph 78% 0 in 0.00 W/m2
19:30 63.9 °F 57.2 °F 30.3 in NW 4.9 mph 5 mph 79% 0 in 0.00 W/m2
19:35 63.9 °F 57.6 °F 30.3 in WNW 4 mph 5 mph 80% 0 in 0.00 W/m2
19:40 63.7 °F 57.4 °F 30.4 in WNW 4.9 mph 7 mph 80% 0 in 0.00 W/m2
19:45 63.7 °F 57.7 °F 30.4 in WNW 2.9 mph 5 mph 81% 0 in 0.00 W/m2
19:50 63.7 °F 57.4 °F 30.4 in WNW 2.9 mph 8 mph 80% 0 in 0.00 W/m2
19:55 63.7 °F 57.7 °F 30.4 in NW 4.9 mph 8 mph 81% 0 in 0.00 W/m2
20:00 63.7 °F 57.7 °F 30.4 in WNW 4 mph 5 mph 81% 0 in 0.00 W/m2
20:05 63.7 °F 57.7 °F 30.4 in West 0.9 mph 8 mph 81% 0 in 0.00 W/m2
20:10 63.5 °F 57.6 °F 30.4 in WNW 4 mph 7 mph 81% 0 in 0.00 W/m2
20:15 63.5 °F 57.9 °F 30.4 in WNW 4.9 mph 7 mph 82% 0 in 0.00 W/m2
20:20 63.3 °F 57.7 °F 30.4 in West 2 mph 5 mph 82% 0 in 0.00 W/m2
20:25 63.3 °F 58.1 °F 30.4 in WNW 6 mph 8 mph 83% 0 in 0.00 W/m2
20:30 63 °F 58.1 °F 30.4 in West 2.9 mph 8 mph 84% 0 in 0.00 W/m2
20:35 62.6 °F 58.1 °F 30.4 in WNW 2 mph 6 mph 85% 0 in 0.00 W/m2
20:40 62.6 °F 58.1 °F 30.4 in WNW 0.9 mph 3 mph 85% 0 in 0.00 W/m2
20:45 62.6 °F 58.3 °F 30.4 in WNW 0.9 mph 4 mph 86% 0 in 0.00 W/m2
20:50 62.4 °F 58.5 °F 30.4 in WNW 2.9 mph 3 mph 87% 0 in 0.00 W/m2
20:55 62.4 °F 58.5 °F 30.4 in West 0.9 mph 3 mph 87% 0 in 0.00 W/m2
21:00 62.4 °F 58.5 °F 30.4 in WSW 4.9 mph 7 mph 87% 0 in 0.00 W/m2
21:05 62.2 °F 58.6 °F 30.4 in WSW 4 mph 5 mph 88% 0 in 0.00 W/m2
21:10 62.4 °F 58.8 °F 30.4 in WSW 2 mph 6 mph 88% 0 in 0.00 W/m2
21:15 62.4 °F 58.8 °F 30.4 in WSW 2 mph 4 mph 88% 0 in 0.00 W/m2
21:20 62.4 °F 58.8 °F 30.4 in West 0.9 mph 5 mph 88% 0 in 0.00 W/m2
21:25 62.4 °F 58.8 °F 30.4 in West 0.9 mph 3 mph 88% 0 in 0.00 W/m2
21:30 62.2 °F 58.6 °F 30.4 in West 4 mph 6 mph 88% 0 in 0.00 W/m2
21:35 62.1 °F 58.8 °F 30.4 in WSW 0.9 mph 6 mph 89% 0 in 0.00 W/m2
21:40 62.1 °F 58.8 °F 30.4 in WSW 0.9 mph 5 mph 89% 0 in 0.00 W/m2
21:45 62.1 °F 58.8 °F 30.4 in WSW 0.9 mph 5 mph 89% 0 in 0.00 W/m2
21:50 62.1 °F 59.2 °F 30.4 in WSW 2.9 mph 5 mph 90% 0 in 0.00 W/m2
21:55 61.9 °F 59 °F 30.4 in WSW 4.9 mph 6 mph 90% 0 in 0.00 W/m2
22:00 61.7 °F 58.8 °F 30.4 in WSW 4.9 mph 5 mph 90% 0 in 0.00 W/m2
22:05 61.7 °F 58.8 °F 30.4 in WSW 2 mph 4 mph 90% 0 in 0.00 W/m2
22:10 61.5 °F 58.8 °F 30.4 in Calm   4 mph 91% 0 in 0.00 W/m2
22:15 61.5 °F 58.8 °F 30.4 in WSW 4 mph 4 mph 91% 0 in 0.00 W/m2
22:20 61.5 °F 58.8 °F 30.4 in West 0.9 mph 6 mph 91% 0 in 0.00 W/m2
22:25 61.5 °F 59.2 °F 30.4 in West 2.9 mph 3 mph 92% 0 in 0.00 W/m2
22:30 61.5 °F 59.2 °F 30.4 in West 4.9 mph 5 mph 92% 0 in 0.00 W/m2
22:35 61.5 °F 59.2 °F 30.4 in West 0.9 mph 4 mph 92% 0 in 0.00 W/m2
22:40 61.3 °F 59 °F 30.4 in West 2.9 mph 3 mph 92% 0 in 0.00 W/m2
22:45 61.3 °F 59 °F 30.4 in West 5 mph 5 mph 92% 0 in 0.00 W/m2
22:50 61.3 °F 59 °F 30.4 in West 2 mph 4 mph 92% 0 in 0.00 W/m2
22:55 61.3 °F 59 °F 30.4 in West 4 mph 6 mph 92% 0 in 0.00 W/m2
23:00 61.3 °F 59 °F 30.4 in West 2.9 mph 5 mph 92% 0 in 0.00 W/m2
23:05 61.3 °F 59 °F 30.4 in West 2 mph 4 mph 92% 0 in 0.00 W/m2
23:10 61.5 °F 59.5 °F 30.4 in West 2.9 mph 6 mph 93% 0 in 0.00 W/m2
23:15 61.5 °F 59.5 °F 30.4 in West 2 mph 5 mph 93% 0 in 0.00 W/m2
23:20 61.5 °F 59.5 °F 30.4 in West 0.9 mph 4 mph 93% 0 in 0.00 W/m2
23:25 61.5 °F 59.5 °F 30.4 in West 2.9 mph 4 mph 93% 0 in 0.00 W/m2
23:30 61.5 °F 59.5 °F 30.4 in WNW 2.9 mph 7 mph 93% 0 in 0.00 W/m2
23:35 61.5 °F 59.5 °F 30.4 in WNW 0.9 mph 3 mph 93% 0.01 in 0.00 W/m2
23:40 61.5 °F 59.5 °F 30.4 in WNW 2 mph 4 mph 93% 0.01 in 0.00 W/m2
23:45 61.5 °F 59.5 °F 30.4 in WNW 0.9 mph 3 mph 93% 0.01 in 0.00 W/m2
23:50 61.5 °F 59.5 °F 30.4 in Calm   1 mph 93% 0.01 in 0.00 W/m2
23:55 61.5 °F 59.7 °F 30.4 in Calm   2 mph 94% 0.01 in 0.00 W/m2